METAR and TAF information
METAR FOR SKBQ
ADDS - METARS form results

(1901 UTC 19 April 2018)
Data provider http://aviationweather.gov/adds/metars/
 
METAR text: SKBQ 191900Z 02017KT 9999 FEW015 BKN200 31/24 A2979
Conditions at: SKBQ (BARRANQUILLA/ERN, CO) observed 1900 UTC 19 April 2018
Temperature: 31.0°C (88°F)
Dewpoint: 24.0°C (75°F) [RH = 66%]
Pressure (altimeter): 29.79 inches Hg (1008.9 mb)
Winds: from the NNE (20 degrees) at 20 MPH (17 knots; 8.8 m/s)
Visibility: 6 or more miles (10+ km)
Ceiling: 20000 feet AGL
Clouds: few clouds at 1500 feet AGL
broken clouds at 20000 feet AGL
Weather: no significant weather observed at this time

Forecast for: SKBQ (BARRANQUILLA/ERN, CO)
Text: TAF SKBQ 191700Z 1918/2018 34012KT 9999 FEW015 SCT090 TX33/1918Z TN24/2011Z
Forecast period: 1800 UTC 19 April 2018 to 1800 UTC 20 April 2018
Forecast type: FROM: standard forecast or significant change
Winds: from the NNW (340 degrees) at 14 MPH (12 knots; 6.2 m/s)
Visibility: 6 or more miles (10+ km)
Clouds: few clouds at 1500 feet AGL
scattered clouds at 9000 feet AGL
Weather: no significant weather forecast for this period
Forecast for: SKBQ (BARRANQUILLA/ERN, CO)
Text: TAF SKBQ 191700Z 1918/2018 34012KT 9999 FEW015 SCT090 TX33/1918Z TN24/2011Z
Forecast period: 1800 UTC 19 April 2018 to 1800 UTC 20 April 2018
Forecast type: FROM: standard forecast or significant change
Winds: from the NNW (340 degrees) at 14 MPH (12 knots; 6.2 m/s)
Visibility: 6 or more miles (10+ km)
Clouds: few clouds at 1500 feet AGL
scattered clouds at 9000 feet AGL
Weather: no significant weather forecast for this period

 Airport map

 Runway information
Runway 05 Runway length 9842 ft Runway width 148 ft
Runway elevation 98 ft Runway displaced threshold 0 ft Runway heading 40
Runway 23 Runway length 9842 ft Runway width 148 ft
Runway elevation 98 ft Runway displaced threshold 0 ft Runway heading 220

 Airport frequencies
Type APP Name BARRANQUIL Frequency 119.1 MHZ
Type ATIS Name ATIS Frequency 113.7 MHZ
Type GND Name GND Frequency 121.9 MHZ
Type RDO Name BARRANQUIL Frequency 348.8 MHZ
Type TWR Name TWR Frequency 118.1 MHZ

 Airport & nearby NAVAIDS
Type NDB Name Barranquilla Frequency 264 KHZ
Type VOR-DME Name Barranquilla Frequency 113700 KHZ




Powered by VAM | Theme by g1g@byt3



Copyright © 2016 - 2018 Olympic Airlines Virtual. All rights reserved.

Olympic Airlines, Olympic Airways etc. are registered trademarks of
their respective owners and are hereby used only for educational
purposes.
Legal disclaimer